My Meet Scores
Peyton Pech, Aspire Gymnastics Academy - MyMeetScores.com
Top100 | Top Teams | Upcoming Meets | Completed Meets | Latest | Add Scores | Help| Support | Bookmark and Share

Peyton Pech, Aspire Gymnastics Academy
Personal Bests
LevelVault BarsBeamFloorAA
39.9259.675 9.6509.50038.400
49.4509.725 9.5759.65037.825
59.7009.700 9.7009.75037.925
79.5009.750 9.7509.62538.550
99.2008.900 9.2509.07535.625
Scores on America's Top 100as of 07.04.2020
Year Level Vault Bars Beam Floor AA
2016 39.925
2017 59.750
2018 59.700
2019 738.550


Click here to view our exclusive Top 100 Collection
Meet Scores
Date Meet Team Session Level Division Vault Bars Beam Floor AA
2020-02-21 Great Western Invitational - Women's Aspire Gymnastics Academy 04 9 Cowgirl 9.150 4 8.450 9T 9.250 2 8.775 8 35.625 6
2020-02-14 Big Classic Aspire Gymnastics Academy 8A 9 Junior A 9.050 8T 8.900 4 8.825 8 8.350 16 35.125 5
2020-01-03 2020 California Grand Invitational Aspire Gymnastics Academy N02 9 Child 8.900 5 6.650 17 9.000 9T 8.500 16 33.050 17
2019-12-20 Aspire Classic - 2019 Aspire Gymnastics Academy 5B 9 Younger 9.200 1 7.150 15 8.750 7 9.075 10 34.175 11
2019-03-29 Illinois Level 7 & 8 State Meet Aspire Gymnastics Academy 7 7 Jr D 9.500 2T 9.000 14 9.675 2T 9.625 3 37.800 3
2019-03-08 Lucky Invite Aspire Gymnastics Academy A01 7 Jr A 9.150 2 9.750 2 9.700 1 9.600 1 38.200 1
2019-02-22 Great Western Invitational - Women's Aspire Gymnastics Academy 11 7 Filly 9.250 3 9.550 3T 8.925 16 9.300 10T 37.025 6
2019-02-15 Big ClassicBIG CLASSIC Aspire Gymnastics Academy 2B 7 Junior A 9.500 3 9.725 1 9.750 2 9.575 2 38.550 1
2019-02-08 Arizona Sunrays Classic Rock Invitational Aspire Gymnastics Academy B04 7 Jr B 9.400 1 9.000 7 9.200 7 9.525 4T 37.125 4
2019-01-25 UGA Invitational Aspire Gymnastics Academy A03 7 Jr A 9.075 4 9.525 1 9.450 4T 9.450 3T 37.500 1
2019-01-18 2019 Bravo Classic Aspire Gymnastics Academy 10A 7 Child 9.275 1 9.700 1 9.400 5 9.475 6 37.850 1
2018-12-14 2018 Aspire Classic Aspire Gymnastics Academy 10B 7 Younger 9.000 3 9.625 1 9.375 7 9.475 5 37.475 1
2018-11-17 Paul Hamm Thanksgiving Class WOMENS Aspire Gymnastics Academy 7 7 Older 9.100 3 9.450 1 9.325 4T 9.300 8 37.175 1
2018-03-08 Level 4 & 5 State Aspire Gymnastics Academy All 5 Ch C 9.600 1 9.575 1 9.525 1 9.025 10 37.725 1
2018-02-16 Big Classic Aspire Gymnastics Academy 4A 5 Child B 9.425 1 9.700 1 8.850 5 9.200 6T 37.175 2
2018-01-26 2018 UGA Classic Aspire Gymnastics Academy B8 5 Junior 9.450 1 9.525 1 9.250 1 9.275 5 37.500 1
2018-01-19 2018 Bravo Classic Aspire Gymnastics Academy 3B 5 Jr 9.375 5T 9.375 3 8.525 21 9.150 9T 36.425 9
2017-12-15 2017 Aspire Classic Aspire Gymnastics Academy 6A 5 Younger 9.550 1 9.500 2T 8.050 16 9.750 1 36.850 5
2017-12-08 St. Nick Invite Aspire Gymnastics Academy 4 5 JrB 9.700 1 9.250 2 9.700 1 9.275 2T 37.925 1
2017-11-16 Paul Hamm Thanksgiving Classic - Women Aspire Gymnastics Academy 8 5 Younger 9.450 4T 9.650 1 9.375 5 9.325 3T 37.800 2
2017-03-10 2017 Illinois Level 4 State Championships Aspire Gymnastics Academy 3 4 Youth A 9.450 1 9.550 1 9.425 3T 9.400 1T 37.825 1
2017-02-24 Kinetic Classic Aspire Gymnastics Academy 5,6 4 All Ages 9.100 23T 9.475 14T 8.750 95T 9.550 2 36.875 16
2017-02-18 2017 Great Western Invitational Women's Aspire Gymnastics Academy 5 4 Filly 9.175 1 9.725 1 9.300 4T 9.350 3 37.550 1
2017-01-27 2017 UGA Invitational Aspire Gymnastics Academy C12 4 Junior 8.850 3 9.625 1 9.500 2 9.650 1 37.625 1
2017-01-20 2017 Bravo Classic Aspire Gymnastics Academy 05B 4 9yrs 8.775 3 9.550 1 9.475 1 9.200 2 37.000 1
2016-12-16 2016 Aspire Classic Aspire Gymnastics Academy 7 4 Younger 9.275 1 9.500 2 9.575 3T 9.275 5 37.625 1
2016-12-09 St. Nick Invite Aspire Gymnastics Academy 6 4 Junior 8.925 3 9.425 2 9.525 3T 9.225 5T 37.100 2
2016-11-19 Paul Hamm Thanksgiving Classic - 2016 Girls Aspire Gymnastics Academy 7 4 9 yrs 9.150 1T 9.100 3 9.225 7T 9.000 10T 36.475 2
2016-03-04 2016 Illinois Level 3 State Championships Aspire Gymnastics Academy 3 Youth-D 9.925 2 9.550 2 9.225 3 9.300 6 38.000 2
2016-02-13 Western Invite Aspire Gymnastics Academy 2 3 Pony 9.825 1 9.300 5 9.200 4 9.075 15 37.400 2
2016-01-15 2016 Bravo Classic Aspire Gymnastics Academy 15A 3 8yrs 9.525 3 9.650 1T 9.300 3 9.475 3T 37.950 2
2015-12-18 2015 Aspire Classic Aspire Gymnastics Academy 10 3 Middle 9.575 1 9.675 2 9.650 3T 9.500 5 38.400 2
2015-12-11 St. Nick Invite Aspire Gymnastics Academy 1B 3 All 9.500 3T 9.300 18 9.000 14T 8.750 20T 36.550 12
2015-03-12 2015 Illinois Level 3 State Championship Aspire Gymnastics Academy All 3 Child-D 9.100 23 8.750 16 8.050 29 8.625 25 34.525 25
2015-02-14 2015 Great Western Invitational Aspire Gymnastics Academy 4 3 Filly 9.100 8T 8.400 10 7.550 17 8.675 7 33.725 11
Get your scores on
a t-shirt, pin, or hoodie

www.lazysuits.com